createdAt,value
2022-07-28T00:02:16.387Z,13.72
2022-07-28T00:07:24.187Z,13.59
2022-07-28T00:12:32.267Z,13.7
2022-07-28T00:17:40.189Z,13.63
2022-07-28T00:22:47.301Z,13.53
2022-07-28T00:27:55.124Z,13.36
2022-07-28T00:33:02.335Z,13.38
2022-07-28T00:38:09.548Z,13.36
2022-07-28T00:43:16.685Z,13.44
2022-07-28T00:48:25.227Z,13.4
2022-07-28T00:53:32.401Z,13.24
2022-07-28T00:58:38.915Z,13.08
2022-07-28T01:03:53.755Z,13.07
2022-07-28T01:08:59.827Z,13.06
2022-07-28T01:14:08.809Z,13.04
2022-07-28T01:19:16.150Z,13.02
2022-07-28T01:24:24.061Z,13.1
2022-07-28T01:29:31.777Z,13.01
2022-07-28T01:34:40.149Z,12.92
2022-07-28T01:39:48.425Z,12.85
2022-07-28T01:44:55.352Z,12.85
2022-07-28T01:50:04.352Z,12.8
2022-07-28T01:55:12.326Z,12.69
2022-07-28T02:00:20.134Z,12.56
2022-07-28T02:05:27.312Z,12.57
2022-07-28T02:10:34.506Z,12.48
2022-07-28T02:15:43.326Z,12.49
2022-07-28T02:20:51.859Z,12.51
2022-07-28T02:25:58.894Z,12.48
2022-07-28T02:31:06.800Z,12.54
2022-07-28T02:36:14.331Z,12.67
2022-07-28T02:41:21.261Z,12.69
2022-07-28T02:46:28.996Z,12.7
2022-07-28T02:51:36.533Z,12.7
2022-07-28T02:56:44.625Z,12.57
2022-07-28T03:01:58.186Z,12.4
2022-07-28T03:07:05.219Z,12.32
2022-07-28T03:12:12.764Z,12.22
2022-07-28T03:17:21.000Z,12.11
2022-07-28T03:22:28.772Z,12.02
2022-07-28T03:27:36.680Z,12.01
2022-07-28T03:32:43.772Z,12.12
2022-07-28T03:37:50.616Z,12.3
2022-07-28T03:42:58.465Z,12.38
2022-07-28T03:48:05.889Z,12.42
2022-07-28T03:53:13.917Z,12.5
2022-07-28T03:58:20.420Z,12.78
2022-07-28T04:03:27.697Z,13.16
2022-07-28T04:08:34.813Z,13.47
2022-07-28T04:13:43.303Z,13.9
2022-07-28T04:18:51.330Z,14.56
2022-07-28T04:24:01.994Z,15.51
2022-07-28T04:29:26.535Z,16.42
2022-07-28T04:34:33.895Z,17.16
2022-07-28T04:39:42.682Z,17.68
2022-07-28T04:44:50.812Z,18.3
2022-07-28T04:49:59.255Z,19.23
2022-07-28T04:55:06.697Z,19.53
2022-07-28T05:00:13.619Z,19.97
2022-07-28T05:05:21.812Z,19.73
2022-07-28T05:10:29.363Z,18.99
2022-07-28T05:15:37.175Z,19.34
2022-07-28T05:20:45.080Z,19.94
2022-07-28T05:25:54.007Z,20.52
2022-07-28T05:31:02.647Z,21.04
2022-07-28T05:36:09.816Z,21.56
2022-07-28T05:41:17.684Z,22.28
2022-07-28T05:46:25.180Z,23.08
2022-07-28T05:51:32.132Z,23.75
2022-07-28T05:56:39.982Z,24.21
2022-07-28T06:01:48.552Z,24.64
2022-07-28T06:06:58.138Z,24.78
2022-07-28T06:12:05.589Z,25.15
2022-07-28T06:17:12.963Z,25.36
2022-07-28T06:22:20.881Z,25.84
2022-07-28T06:27:28.999Z,26.23
2022-07-28T06:32:36.942Z,26.73
2022-07-28T06:37:45.877Z,26.92
2022-07-28T06:42:53.518Z,26.94
2022-07-28T06:48:00.894Z,26.47
2022-07-28T06:53:08.062Z,26.42
2022-07-28T06:58:16.305Z,26.49
2022-07-28T07:03:24.162Z,26.78
2022-07-28T07:08:32.291Z,26.84
2022-07-28T07:13:40.091Z,26.9
2022-07-28T07:18:47.292Z,26.96
2022-07-28T07:23:55.991Z,27.26
2022-07-28T07:29:04.293Z,27.26
2022-07-28T07:34:11.769Z,26.61
2022-07-28T07:39:19.656Z,27.49
2022-07-28T07:44:28.283Z,28.1
2022-07-28T07:49:35.613Z,28.06
2022-07-28T07:54:42.742Z,28.89
2022-07-28T07:59:51.293Z,30.78
2022-07-28T08:04:58.078Z,30.98
2022-07-28T08:10:07.037Z,31.7
2022-07-28T08:15:15.321Z,31.98
2022-07-28T08:20:23.471Z,32.06
2022-07-28T08:25:31.212Z,31.69
2022-07-28T08:30:38.031Z,31.05
2022-07-28T08:35:46.350Z,31.25
2022-07-28T08:40:53.373Z,30.96
2022-07-28T08:46:10.231Z,30.71
2022-07-28T08:51:18.989Z,31.2
2022-07-28T08:56:25.855Z,31.58
2022-07-28T09:01:32.425Z,29.97
2022-07-28T09:06:40.002Z,29.26
2022-07-28T09:11:47.660Z,30.93
2022-07-28T09:16:54.022Z,31.86
2022-07-28T09:22:02.364Z,31.71
2022-07-28T09:27:09.697Z,31.67
2022-07-28T09:32:16.950Z,31.21
2022-07-28T09:37:24.778Z,30.96
2022-07-28T09:42:32.623Z,31.35
2022-07-28T09:47:40.718Z,31.92
2022-07-28T09:52:48.251Z,32.59
2022-07-28T09:57:55.636Z,32.71
2022-07-28T10:03:02.378Z,32.61
2022-07-28T10:08:10.632Z,31.97
2022-07-28T10:13:17.055Z,32.7
2022-07-28T10:18:26.186Z,32.4
2022-07-28T10:23:34.052Z,32.71
2022-07-28T10:28:42.532Z,32.36
2022-07-28T10:33:50.845Z,33.04
2022-07-28T10:38:58.417Z,32.98
2022-07-28T10:44:06.527Z,33.33
2022-07-28T10:49:15.520Z,33.33
2022-07-28T10:54:23.665Z,33.34
2022-07-28T10:59:30.882Z,33.22
2022-07-28T11:04:38.936Z,32.44
2022-07-28T11:09:45.896Z,32.38
2022-07-28T11:14:53.700Z,33.1
2022-07-28T11:20:01.576Z,31.55
2022-07-28T11:25:09.442Z,31.29
2022-07-28T11:30:17.215Z,32.86
2022-07-28T11:35:24.957Z,34.19
2022-07-28T11:40:33.847Z,35.04
2022-07-28T11:45:40.151Z,35.52
2022-07-28T11:50:48.058Z,35.19
2022-07-28T11:56:02.696Z,34.35
2022-07-28T12:01:11.207Z,34.04
2022-07-28T12:06:19.353Z,33.84
2022-07-28T12:11:26.386Z,33.27
2022-07-28T12:16:34.984Z,33.34
2022-07-28T12:21:43.233Z,32.96
2022-07-28T12:26:49.856Z,32.4
2022-07-28T12:31:57.692Z,32.45
2022-07-28T12:37:05.005Z,32.71
2022-07-28T12:42:12.094Z,32.84
2022-07-28T12:47:20.488Z,32.9
2022-07-28T12:52:28.346Z,32.93
2022-07-28T12:57:34.976Z,32.44
2022-07-28T13:02:42.175Z,32.29
2022-07-28T13:07:49.538Z,32.26
2022-07-28T13:12:56.572Z,32.39
2022-07-28T13:18:04.899Z,30.55
2022-07-28T13:23:12.377Z,29.3
2022-07-28T13:28:21.951Z,30.82
2022-07-28T13:33:29.223Z,32.31
2022-07-28T13:38:37.260Z,33.86
2022-07-28T13:43:44.709Z,34.45
2022-07-28T13:48:52.566Z,35.4
2022-07-28T13:54:00.454Z,35.7
2022-07-28T14:03:44.164Z,35.92
2022-07-28T14:08:49.503Z,35.7
2022-07-28T14:13:56.887Z,34.0
2022-07-28T14:19:03.315Z,31.97
2022-07-28T14:24:12.351Z,33.26
2022-07-28T14:29:19.682Z,35.02
2022-07-28T14:34:28.004Z,34.64
2022-07-28T14:41:07.506Z,34.9
2022-07-28T14:46:12.740Z,32.82
2022-07-28T14:51:20.548Z,31.36
2022-07-28T14:56:27.137Z,32.5
2022-07-28T15:01:35.662Z,33.51
2022-07-28T15:06:42.915Z,33.56
2022-07-28T15:11:50.390Z,33.35
2022-07-28T15:16:58.903Z,33.14
2022-07-28T15:22:06.339Z,32.38
2022-07-28T15:27:13.810Z,31.76
2022-07-28T15:32:21.956Z,30.82
2022-07-28T15:37:30.672Z,30.15
2022-07-28T15:42:39.092Z,29.82
2022-07-28T15:47:46.234Z,29.54
2022-07-28T15:52:53.879Z,29.1
2022-07-28T15:58:01.993Z,29.16
2022-07-28T16:03:09.057Z,28.94
2022-07-28T16:08:16.893Z,28.69
2022-07-28T16:13:25.350Z,28.53
2022-07-28T16:18:31.931Z,28.02
2022-07-28T16:23:39.135Z,27.29
2022-07-28T16:28:46.933Z,26.75
2022-07-28T16:33:55.897Z,26.68
2022-07-28T16:39:02.809Z,26.86
2022-07-28T16:44:10.094Z,26.84
2022-07-28T16:49:16.414Z,26.7
2022-07-28T16:54:24.777Z,26.58
2022-07-28T16:59:32.900Z,26.44
2022-07-28T17:04:40.571Z,26.24
2022-07-28T17:09:48.080Z,26.01
2022-07-28T17:14:54.971Z,25.76
2022-07-28T17:20:01.546Z,25.44
2022-07-28T17:25:08.142Z,25.22
2022-07-28T17:30:15.937Z,25.04
2022-07-28T17:35:24.758Z,24.94
2022-07-28T17:40:33.366Z,24.83
2022-07-28T17:45:42.065Z,24.64
2022-07-28T17:50:49.485Z,24.5
2022-07-28T17:55:57.637Z,24.34
2022-07-28T18:01:05.629Z,24.2
2022-07-28T18:06:12.675Z,24.04
2022-07-28T18:11:19.294Z,23.94
2022-07-28T18:16:26.500Z,23.72
2022-07-28T18:21:33.071Z,23.4
2022-07-28T18:26:39.684Z,23.2
2022-07-28T18:31:47.399Z,22.84
2022-07-28T18:36:55.807Z,22.44
2022-07-28T18:42:04.624Z,22.14
2022-07-28T18:47:12.547Z,21.86
2022-07-28T18:52:20.127Z,21.6
2022-07-28T18:57:33.095Z,21.48
2022-07-28T19:02:40.438Z,21.38
2022-07-28T19:07:47.567Z,21.4
2022-07-28T19:12:56.225Z,21.29
2022-07-28T19:18:03.925Z,21.39
2022-07-28T19:23:11.619Z,21.47
2022-07-28T19:28:19.459Z,21.36
2022-07-28T19:33:26.882Z,21.18
2022-07-28T19:38:33.961Z,21.08
2022-07-28T19:43:41.500Z,21.07
2022-07-28T19:48:48.582Z,21.11
2022-07-28T19:53:55.443Z,21.04
2022-07-28T19:59:03.770Z,20.92
2022-07-28T20:04:11.191Z,20.96
2022-07-28T20:09:18.383Z,20.99
2022-07-28T20:14:27.209Z,20.9
2022-07-28T20:19:34.653Z,20.86
2022-07-28T20:24:41.856Z,20.78
2022-07-28T20:29:50.543Z,20.7
2022-07-28T20:34:59.164Z,20.54
2022-07-28T20:40:07.576Z,20.44
2022-07-28T20:45:16.339Z,20.22
2022-07-28T20:50:23.980Z,20.18
2022-07-28T20:55:30.804Z,19.98
2022-07-28T21:00:38.077Z,19.7
2022-07-28T21:05:46.872Z,19.4
2022-07-28T21:10:55.518Z,19.07
2022-07-28T21:16:03.371Z,18.78
2022-07-28T21:21:18.906Z,18.64
2022-07-28T21:26:25.535Z,18.53
2022-07-28T21:31:33.904Z,18.32
2022-07-28T21:36:41.665Z,18.06
2022-07-28T21:41:49.463Z,17.9
2022-07-28T21:46:57.465Z,17.84
2022-07-28T21:52:05.678Z,17.76
2022-07-28T21:57:14.318Z,18.04
2022-07-28T22:02:22.773Z,18.3
2022-07-28T22:07:29.603Z,18.58
2022-07-28T22:12:37.417Z,18.69
2022-07-28T22:17:44.914Z,18.68
2022-07-28T22:22:52.528Z,18.75
2022-07-28T22:27:59.833Z,18.72
2022-07-28T22:33:06.242Z,18.76
2022-07-28T22:38:14.049Z,18.78
2022-07-28T22:43:20.621Z,18.72
2022-07-28T22:48:28.072Z,18.64
2022-07-28T22:53:37.686Z,18.48
2022-07-28T22:58:45.656Z,18.23
2022-07-28T23:03:52.718Z,18.03
2022-07-28T23:08:59.773Z,17.83
2022-07-28T23:14:06.985Z,17.75
2022-07-28T23:19:14.622Z,17.58
2022-07-28T23:24:21.722Z,17.56
2022-07-28T23:29:30.379Z,17.34
2022-07-28T23:34:38.212Z,17.29
2022-07-28T23:39:45.537Z,17.33
2022-07-28T23:44:54.147Z,17.23
2022-07-28T23:50:02.491Z,17.21
2022-07-28T23:55:09.693Z,17.22
